sensor_id;sensor_type;location;lat;lon;timestamp;P1;durP1;ratioP1;P2;durP2;ratioP2
49738;SDS011;53662;50.114;8.626;2023-07-29T00:00:56;5.50;;;5.00;;
49738;SDS011;53662;50.114;8.626;2023-07-29T00:03:22;5.18;;;4.78;;
49738;SDS011;53662;50.114;8.626;2023-07-29T00:05:48;5.35;;;4.97;;
49738;SDS011;53662;50.114;8.626;2023-07-29T00:08:14;6.00;;;5.60;;
49738;SDS011;53662;50.114;8.626;2023-07-29T00:10:40;7.60;;;5.22;;
49738;SDS011;53662;50.114;8.626;2023-07-29T00:13:06;5.55;;;5.25;;
49738;SDS011;53662;50.114;8.626;2023-07-29T00:15:32;6.15;;;5.57;;
49738;SDS011;53662;50.114;8.626;2023-07-29T00:17:58;11.15;;;5.38;;
49738;SDS011;53662;50.114;8.626;2023-07-29T00:20:24;8.02;;;5.75;;
49738;SDS011;53662;50.114;8.626;2023-07-29T00:22:50;9.15;;;5.68;;
49738;SDS011;53662;50.114;8.626;2023-07-29T00:25:18;9.43;;;5.50;;
49738;SDS011;53662;50.114;8.626;2023-07-29T00:27:44;8.25;;;5.82;;
49738;SDS011;53662;50.114;8.626;2023-07-29T00:30:10;6.38;;;5.90;;
49738;SDS011;53662;50.114;8.626;2023-07-29T00:32:36;6.25;;;5.85;;
49738;SDS011;53662;50.114;8.626;2023-07-29T00:35:03;6.28;;;5.82;;
49738;SDS011;53662;50.114;8.626;2023-07-29T00:37:29;6.63;;;6.03;;
49738;SDS011;53662;50.114;8.626;2023-07-29T00:39:56;7.43;;;6.20;;
49738;SDS011;53662;50.114;8.626;2023-07-29T00:42:22;10.07;;;5.60;;
49738;SDS011;53662;50.114;8.626;2023-07-29T00:44:48;8.63;;;6.50;;
49738;SDS011;53662;50.114;8.626;2023-07-29T00:47:15;6.75;;;6.25;;
49738;SDS011;53662;50.114;8.626;2023-07-29T00:49:41;6.82;;;6.22;;
49738;SDS011;53662;50.114;8.626;2023-07-29T00:52:07;7.28;;;6.63;;
49738;SDS011;53662;50.114;8.626;2023-07-29T00:54:36;7.45;;;6.60;;
49738;SDS011;53662;50.114;8.626;2023-07-29T00:57:02;6.57;;;5.95;;
49738;SDS011;53662;50.114;8.626;2023-07-29T00:59:28;9.27;;;6.43;;
49738;SDS011;53662;50.114;8.626;2023-07-29T01:01:55;8.38;;;6.32;;
49738;SDS011;53662;50.114;8.626;2023-07-29T01:04:21;7.63;;;7.00;;
49738;SDS011;53662;50.114;8.626;2023-07-29T01:09:35;7.40;;;6.63;;
49738;SDS011;53662;50.114;8.626;2023-07-29T01:12:22;7.05;;;6.55;;
49738;SDS011;53662;50.114;8.626;2023-07-29T01:17:46;7.90;;;7.03;;
49738;SDS011;53662;50.114;8.626;2023-07-29T01:20:16;7.30;;;6.68;;
49738;SDS011;53662;50.114;8.626;2023-07-29T01:22:45;8.15;;;7.45;;
49738;SDS011;53662;50.114;8.626;2023-07-29T01:25:11;8.88;;;8.07;;
49738;SDS011;53662;50.114;8.626;2023-07-29T01:27:36;10.45;;;8.63;;
49738;SDS011;53662;50.114;8.626;2023-07-29T01:30:02;8.95;;;7.72;;
49738;SDS011;53662;50.114;8.626;2023-07-29T01:37:36;9.23;;;7.55;;
49738;SDS011;53662;50.114;8.626;2023-07-29T01:40:03;8.65;;;7.32;;
49738;SDS011;53662;50.114;8.626;2023-07-29T01:42:29;8.32;;;7.60;;
49738;SDS011;53662;50.114;8.626;2023-07-29T01:44:56;7.95;;;7.28;;
49738;SDS011;53662;50.114;8.626;2023-07-29T01:47:22;6.85;;;6.35;;
49738;SDS011;53662;50.114;8.626;2023-07-29T01:49:48;6.97;;;6.22;;
49738;SDS011;53662;50.114;8.626;2023-07-29T01:52:14;7.78;;;6.47;;
49738;SDS011;53662;50.114;8.626;2023-07-29T01:54:40;7.18;;;6.53;;
49738;SDS011;53662;50.114;8.626;2023-07-29T01:57:06;7.28;;;6.28;;
49738;SDS011;53662;50.114;8.626;2023-07-29T01:59:32;6.60;;;6.00;;
49738;SDS011;53662;50.114;8.626;2023-07-29T02:01:58;6.97;;;5.90;;
49738;SDS011;53662;50.114;8.626;2023-07-29T02:04:24;6.60;;;5.97;;
49738;SDS011;53662;50.114;8.626;2023-07-29T02:06:50;10.38;;;6.13;;
49738;SDS011;53662;50.114;8.626;2023-07-29T02:09:15;6.57;;;6.05;;
49738;SDS011;53662;50.114;8.626;2023-07-29T02:11:41;5.65;;;5.30;;
49738;SDS011;53662;50.114;8.626;2023-07-29T02:14:07;5.82;;;5.43;;
49738;SDS011;53662;50.114;8.626;2023-07-29T02:16:33;6.40;;;5.70;;
49738;SDS011;53662;50.114;8.626;2023-07-29T02:18:59;6.72;;;5.22;;
49738;SDS011;53662;50.114;8.626;2023-07-29T02:21:25;6.68;;;6.00;;
49738;SDS011;53662;50.114;8.626;2023-07-29T02:23:51;5.25;;;4.75;;
49738;SDS011;53662;50.114;8.626;2023-07-29T02:26:17;5.20;;;4.80;;
49738;SDS011;53662;50.114;8.626;2023-07-29T02:28:43;5.82;;;4.95;;
49738;SDS011;53662;50.114;8.626;2023-07-29T02:31:16;5.25;;;4.78;;
49738;SDS011;53662;50.114;8.626;2023-07-29T02:33:43;5.85;;;4.53;;
49738;SDS011;53662;50.114;8.626;2023-07-29T02:36:09;4.88;;;4.47;;
49738;SDS011;53662;50.114;8.626;2023-07-29T02:38:35;7.93;;;4.97;;
49738;SDS011;53662;50.114;8.626;2023-07-29T02:41:01;6.10;;;4.60;;
49738;SDS011;53662;50.114;8.626;2023-07-29T02:43:27;7.18;;;4.78;;
49738;SDS011;53662;50.114;8.626;2023-07-29T02:45:53;5.13;;;4.70;;
49738;SDS011;53662;50.114;8.626;2023-07-29T02:48:18;5.80;;;4.82;;
49738;SDS011;53662;50.114;8.626;2023-07-29T02:50:44;5.15;;;4.57;;
49738;SDS011;53662;50.114;8.626;2023-07-29T02:53:10;5.60;;;4.32;;
49738;SDS011;53662;50.114;8.626;2023-07-29T02:55:39;4.78;;;4.45;;
49738;SDS011;53662;50.114;8.626;2023-07-29T02:58:05;4.50;;;4.10;;
49738;SDS011;53662;50.114;8.626;2023-07-29T03:00:32;5.00;;;4.57;;
49738;SDS011;53662;50.114;8.626;2023-07-29T03:02:58;4.70;;;4.40;;
49738;SDS011;53662;50.114;8.626;2023-07-29T03:05:24;6.43;;;4.20;;
49738;SDS011;53662;50.114;8.626;2023-07-29T03:07:50;4.28;;;3.97;;
49738;SDS011;53662;50.114;8.626;2023-07-29T03:10:16;4.30;;;3.90;;
49738;SDS011;53662;50.114;8.626;2023-07-29T03:12:42;3.30;;;3.10;;
49738;SDS011;53662;50.114;8.626;2023-07-29T03:15:08;10.60;;;3.60;;
49738;SDS011;53662;50.114;8.626;2023-07-29T03:17:34;4.55;;;3.22;;
49738;SDS011;53662;50.114;8.626;2023-07-29T03:20:00;3.65;;;3.08;;
49738;SDS011;53662;50.114;8.626;2023-07-29T03:22:25;3.10;;;2.90;;
49738;SDS011;53662;50.114;8.626;2023-07-29T03:24:51;3.47;;;3.08;;
49738;SDS011;53662;50.114;8.626;2023-07-29T03:27:17;3.15;;;2.85;;
49738;SDS011;53662;50.114;8.626;2023-07-29T03:29:43;3.00;;;2.80;;
49738;SDS011;53662;50.114;8.626;2023-07-29T03:32:09;2.58;;;2.38;;
49738;SDS011;53662;50.114;8.626;2023-07-29T03:34:35;2.72;;;2.53;;
49738;SDS011;53662;50.114;8.626;2023-07-29T03:37:01;4.22;;;2.90;;
49738;SDS011;53662;50.114;8.626;2023-07-29T03:39:27;3.30;;;3.00;;
49738;SDS011;53662;50.114;8.626;2023-07-29T03:41:53;4.63;;;3.00;;
49738;SDS011;53662;50.114;8.626;2023-07-29T03:44:19;3.30;;;2.97;;
49738;SDS011;53662;50.114;8.626;2023-07-29T03:46:45;3.58;;;2.80;;
49738;SDS011;53662;50.114;8.626;2023-07-29T03:49:11;3.55;;;2.75;;
49738;SDS011;53662;50.114;8.626;2023-07-29T03:51:37;3.08;;;2.85;;
49738;SDS011;53662;50.114;8.626;2023-07-29T03:54:03;4.50;;;2.95;;
49738;SDS011;53662;50.114;8.626;2023-07-29T03:56:29;3.75;;;3.25;;
49738;SDS011;53662;50.114;8.626;2023-07-29T03:59:02;3.47;;;3.20;;
49738;SDS011;53662;50.114;8.626;2023-07-29T04:01:28;5.88;;;3.50;;
49738;SDS011;53662;50.114;8.626;2023-07-29T04:03:54;3.80;;;3.15;;
49738;SDS011;53662;50.114;8.626;2023-07-29T04:06:20;6.20;;;3.83;;
49738;SDS011;53662;50.114;8.626;2023-07-29T04:08:46;4.13;;;3.20;;
49738;SDS011;53662;50.114;8.626;2023-07-29T04:11:12;4.80;;;3.67;;
49738;SDS011;53662;50.114;8.626;2023-07-29T04:13:38;4.40;;;4.07;;
49738;SDS011;53662;50.114;8.626;2023-07-29T04:16:04;8.85;;;3.80;;
49738;SDS011;53662;50.114;8.626;2023-07-29T04:18:30;6.90;;;4.10;;
49738;SDS011;53662;50.114;8.626;2023-07-29T04:20:56;4.40;;;4.00;;
49738;SDS011;53662;50.114;8.626;2023-07-29T04:23:22;4.45;;;4.00;;
49738;SDS011;53662;50.114;8.626;2023-07-29T04:25:48;4.68;;;4.35;;
49738;SDS011;53662;50.114;8.626;2023-07-29T04:28:15;4.80;;;4.40;;
49738;SDS011;53662;50.114;8.626;2023-07-29T04:30:41;6.38;;;4.10;;
49738;SDS011;53662;50.114;8.626;2023-07-29T04:33:07;10.27;;;4.38;;
49738;SDS011;53662;50.114;8.626;2023-07-29T04:35:33;4.45;;;4.00;;
49738;SDS011;53662;50.114;8.626;2023-07-29T04:37:58;5.20;;;4.70;;
49738;SDS011;53662;50.114;8.626;2023-07-29T04:40:24;5.63;;;4.93;;
49738;SDS011;53662;50.114;8.626;2023-07-29T04:42:51;5.78;;;5.07;;
49738;SDS011;53662;50.114;8.626;2023-07-29T04:45:17;5.75;;;4.85;;
49738;SDS011;53662;50.114;8.626;2023-07-29T04:47:43;6.70;;;5.20;;
49738;SDS011;53662;50.114;8.626;2023-07-29T04:50:09;9.35;;;5.53;;
49738;SDS011;53662;50.114;8.626;2023-07-29T04:52:35;5.75;;;5.35;;
49738;SDS011;53662;50.114;8.626;2023-07-29T04:55:01;10.82;;;5.63;;
49738;SDS011;53662;50.114;8.626;2023-07-29T04:57:27;7.13;;;6.53;;
49738;SDS011;53662;50.114;8.626;2023-07-29T04:59:54;7.18;;;6.65;;
49738;SDS011;53662;50.114;8.626;2023-07-29T05:02:20;7.97;;;7.28;;
49738;SDS011;53662;50.114;8.626;2023-07-29T05:04:46;8.98;;;6.75;;
49738;SDS011;53662;50.114;8.626;2023-07-29T05:07:12;7.40;;;6.90;;
49738;SDS011;53662;50.114;8.626;2023-07-29T05:09:37;8.43;;;7.05;;
49738;SDS011;53662;50.114;8.626;2023-07-29T05:12:03;8.40;;;6.93;;
49738;SDS011;53662;50.114;8.626;2023-07-29T05:14:30;6.47;;;6.03;;
49738;SDS011;53662;50.114;8.626;2023-07-29T05:16:55;7.30;;;6.70;;
49738;SDS011;53662;50.114;8.626;2023-07-29T05:19:21;10.98;;;6.20;;
49738;SDS011;53662;50.114;8.626;2023-07-29T05:21:47;6.18;;;5.72;;
49738;SDS011;53662;50.114;8.626;2023-07-29T05:24:13;6.53;;;5.55;;
49738;SDS011;53662;50.114;8.626;2023-07-29T05:26:39;9.07;;;5.43;;
49738;SDS011;53662;50.114;8.626;2023-07-29T05:29:05;6.63;;;5.88;;
49738;SDS011;53662;50.114;8.626;2023-07-29T05:31:31;5.25;;;4.95;;
49738;SDS011;53662;50.114;8.626;2023-07-29T05:33:57;8.98;;;5.60;;
49738;SDS011;53662;50.114;8.626;2023-07-29T05:36:24;5.93;;;5.43;;
49738;SDS011;53662;50.114;8.626;2023-07-29T05:38:50;5.85;;;5.35;;
49738;SDS011;53662;50.114;8.626;2023-07-29T05:41:17;6.72;;;5.80;;
49738;SDS011;53662;50.114;8.626;2023-07-29T05:43:43;6.47;;;5.97;;
49738;SDS011;53662;50.114;8.626;2023-07-29T05:46:10;9.10;;;5.60;;
49738;SDS011;53662;50.114;8.626;2023-07-29T05:48:36;6.70;;;6.20;;
49738;SDS011;53662;50.114;8.626;2023-07-29T05:51:02;6.43;;;5.93;;
49738;SDS011;53662;50.114;8.626;2023-07-29T05:53:29;7.43;;;5.57;;
49738;SDS011;53662;50.114;8.626;2023-07-29T05:55:55;9.60;;;5.55;;
49738;SDS011;53662;50.114;8.626;2023-07-29T05:58:20;8.43;;;5.68;;
49738;SDS011;53662;50.114;8.626;2023-07-29T06:00:46;7.15;;;6.45;;
49738;SDS011;53662;50.114;8.626;2023-07-29T06:03:12;9.45;;;7.05;;
49738;SDS011;53662;50.114;8.626;2023-07-29T06:05:39;7.13;;;6.53;;
49738;SDS011;53662;50.114;8.626;2023-07-29T06:08:05;7.75;;;7.05;;
49738;SDS011;53662;50.114;8.626;2023-07-29T06:10:32;12.10;;;6.75;;
49738;SDS011;53662;50.114;8.626;2023-07-29T06:12:58;8.43;;;6.65;;
49738;SDS011;53662;50.114;8.626;2023-07-29T06:15:24;8.57;;;7.05;;
49738;SDS011;53662;50.114;8.626;2023-07-29T06:17:50;7.15;;;6.55;;
49738;SDS011;53662;50.114;8.626;2023-07-29T06:20:15;12.30;;;11.20;;
49738;SDS011;53662;50.114;8.626;2023-07-29T06:22:41;7.68;;;7.05;;
49738;SDS011;53662;50.114;8.626;2023-07-29T06:25:08;10.38;;;6.70;;
49738;SDS011;53662;50.114;8.626;2023-07-29T06:27:34;10.13;;;9.07;;
49738;SDS011;53662;50.114;8.626;2023-07-29T06:30:00;7.63;;;7.03;;
49738;SDS011;53662;50.114;8.626;2023-07-29T06:32:26;7.75;;;7.05;;
49738;SDS011;53662;50.114;8.626;2023-07-29T06:34:51;8.43;;;7.70;;
49738;SDS011;53662;50.114;8.626;2023-07-29T06:37:19;8.00;;;7.40;;
49738;SDS011;53662;50.114;8.626;2023-07-29T06:40:03;9.43;;;6.95;;
49738;SDS011;53662;50.114;8.626;2023-07-29T06:42:30;9.40;;;7.07;;
49738;SDS011;53662;50.114;8.626;2023-07-29T06:44:56;6.35;;;5.88;;
49738;SDS011;53662;50.114;8.626;2023-07-29T06:47:22;7.20;;;4.97;;
49738;SDS011;53662;50.114;8.626;2023-07-29T06:49:48;8.90;;;4.10;;
49738;SDS011;53662;50.114;8.626;2023-07-29T06:52:20;3.30;;;3.10;;
49738;SDS011;53662;50.114;8.626;2023-07-29T06:54:46;3.22;;;2.90;;
49738;SDS011;53662;50.114;8.626;2023-07-29T06:57:12;2.78;;;2.58;;
49738;SDS011;53662;50.114;8.626;2023-07-29T06:59:38;3.30;;;3.10;;
49738;SDS011;53662;50.114;8.626;2023-07-29T07:02:06;5.15;;;3.35;;
49738;SDS011;53662;50.114;8.626;2023-07-29T07:04:32;4.43;;;3.78;;
49738;SDS011;53662;50.114;8.626;2023-07-29T07:06:58;4.40;;;4.03;;
49738;SDS011;53662;50.114;8.626;2023-07-29T07:09:27;5.72;;;4.30;;
49738;SDS011;53662;50.114;8.626;2023-07-29T07:11:56;5.70;;;5.20;;
49738;SDS011;53662;50.114;8.626;2023-07-29T07:14:36;5.68;;;5.28;;
49738;SDS011;53662;50.114;8.626;2023-07-29T07:17:22;5.10;;;4.68;;
49738;SDS011;53662;50.114;8.626;2023-07-29T07:22:45;5.97;;;5.38;;
49738;SDS011;53662;50.114;8.626;2023-07-29T07:25:11;6.47;;;5.65;;
49738;SDS011;53662;50.114;8.626;2023-07-29T07:27:37;6.18;;;5.60;;
49738;SDS011;53662;50.114;8.626;2023-07-29T07:30:03;8.95;;;5.30;;
49738;SDS011;53662;50.114;8.626;2023-07-29T07:32:29;5.75;;;5.30;;
49738;SDS011;53662;50.114;8.626;2023-07-29T07:34:55;7.28;;;6.03;;
49738;SDS011;53662;50.114;8.626;2023-07-29T07:37:21;5.20;;;4.90;;
49738;SDS011;53662;50.114;8.626;2023-07-29T07:39:47;6.78;;;5.30;;
49738;SDS011;53662;50.114;8.626;2023-07-29T07:42:13;6.93;;;6.22;;
49738;SDS011;53662;50.114;8.626;2023-07-29T07:44:39;6.50;;;5.90;;
49738;SDS011;53662;50.114;8.626;2023-07-29T07:47:05;5.93;;;5.35;;
49738;SDS011;53662;50.114;8.626;2023-07-29T07:49:31;6.18;;;5.65;;
49738;SDS011;53662;50.114;8.626;2023-07-29T07:51:57;5.53;;;5.22;;
49738;SDS011;53662;50.114;8.626;2023-07-29T07:54:23;8.15;;;5.60;;
49738;SDS011;53662;50.114;8.626;2023-07-29T07:56:49;5.75;;;5.35;;
49738;SDS011;53662;50.114;8.626;2023-07-29T07:59:14;7.03;;;5.95;;
49738;SDS011;53662;50.114;8.626;2023-07-29T08:01:40;6.80;;;6.32;;
49738;SDS011;53662;50.114;8.626;2023-07-29T08:04:06;5.57;;;5.18;;
49738;SDS011;53662;50.114;8.626;2023-07-29T08:06:32;5.90;;;5.22;;
49738;SDS011;53662;50.114;8.626;2023-07-29T08:08:59;6.78;;;6.28;;
49738;SDS011;53662;50.114;8.626;2023-07-29T08:11:25;8.65;;;5.68;;
49738;SDS011;53662;50.114;8.626;2023-07-29T08:13:51;5.85;;;4.93;;
49738;SDS011;53662;50.114;8.626;2023-07-29T08:16:17;5.93;;;5.35;;
49738;SDS011;53662;50.114;8.626;2023-07-29T08:18:43;5.22;;;4.82;;
49738;SDS011;53662;50.114;8.626;2023-07-29T08:21:09;4.75;;;4.40;;
49738;SDS011;53662;50.114;8.626;2023-07-29T08:23:35;4.53;;;4.22;;
49738;SDS011;53662;50.114;8.626;2023-07-29T08:26:02;13.80;;;6.93;;
49738;SDS011;53662;50.114;8.626;2023-07-29T08:28:30;4.45;;;4.18;;
49738;SDS011;53662;50.114;8.626;2023-07-29T08:30:57;8.60;;;4.60;;
49738;SDS011;53662;50.114;8.626;2023-07-29T08:33:23;7.35;;;4.00;;
49738;SDS011;53662;50.114;8.626;2023-07-29T08:35:49;5.63;;;3.97;;
49738;SDS011;53662;50.114;8.626;2023-07-29T08:38:14;4.05;;;3.65;;
49738;SDS011;53662;50.114;8.626;2023-07-29T08:40:53;5.15;;;3.42;;
49738;SDS011;53662;50.114;8.626;2023-07-29T08:43:19;4.22;;;2.90;;
49738;SDS011;53662;50.114;8.626;2023-07-29T08:45:46;5.25;;;4.63;;
49738;SDS011;53662;50.114;8.626;2023-07-29T08:48:12;3.00;;;2.78;;
49738;SDS011;53662;50.114;8.626;2023-07-29T08:50:38;3.33;;;2.47;;
49738;SDS011;53662;50.114;8.626;2023-07-29T08:53:04;8.18;;;4.68;;
49738;SDS011;53662;50.114;8.626;2023-07-29T08:55:31;2.25;;;2.13;;
49738;SDS011;53662;50.114;8.626;2023-07-29T08:57:57;11.13;;;2.70;;
49738;SDS011;53662;50.114;8.626;2023-07-29T09:00:23;1.85;;;1.75;;
49738;SDS011;53662;50.114;8.626;2023-07-29T09:02:50;4.50;;;2.97;;
49738;SDS011;53662;50.114;8.626;2023-07-29T09:05:16;3.92;;;2.50;;
49738;SDS011;53662;50.114;8.626;2023-07-29T09:07:42;5.30;;;2.22;;
49738;SDS011;53662;50.114;8.626;2023-07-29T09:10:08;9.88;;;4.05;;
49738;SDS011;53662;50.114;8.626;2023-07-29T09:12:37;2.28;;;2.08;;
49738;SDS011;53662;50.114;8.626;2023-07-29T09:15:03;9.88;;;5.78;;
49738;SDS011;53662;50.114;8.626;2023-07-29T09:17:33;2.13;;;1.92;;
49738;SDS011;53662;50.114;8.626;2023-07-29T09:19:59;4.00;;;1.60;;
49738;SDS011;53662;50.114;8.626;2023-07-29T09:22:26;7.82;;;2.30;;
49738;SDS011;53662;50.114;8.626;2023-07-29T09:24:53;3.67;;;2.67;;
49738;SDS011;53662;50.114;8.626;2023-07-29T09:27:28;4.13;;;2.55;;
49738;SDS011;53662;50.114;8.626;2023-07-29T09:29:56;3.38;;;1.38;;
49738;SDS011;53662;50.114;8.626;2023-07-29T09:32:23;2.63;;;1.40;;
49738;SDS011;53662;50.114;8.626;2023-07-29T09:34:49;2.97;;;1.00;;
49738;SDS011;53662;50.114;8.626;2023-07-29T09:37:25;1.27;;;1.20;;
49738;SDS011;53662;50.114;8.626;2023-07-29T09:39:51;1.42;;;1.15;;
49738;SDS011;53662;50.114;8.626;2023-07-29T09:42:20;1.52;;;0.90;;
49738;SDS011;53662;50.114;8.626;2023-07-29T09:44:48;0.93;;;0.93;;
49738;SDS011;53662;50.114;8.626;2023-07-29T09:47:24;2.08;;;1.20;;
49738;SDS011;53662;50.114;8.626;2023-07-29T09:49:50;0.82;;;0.82;;
49738;SDS011;53662;50.114;8.626;2023-07-29T09:52:17;1.42;;;0.90;;
49738;SDS011;53662;50.114;8.626;2023-07-29T09:54:43;1.75;;;0.90;;
49738;SDS011;53662;50.114;8.626;2023-07-29T09:57:13;0.98;;;0.98;;
49738;SDS011;53662;50.114;8.626;2023-07-29T09:59:39;0.93;;;0.93;;
49738;SDS011;53662;50.114;8.626;2023-07-29T10:02:09;2.35;;;2.13;;
49738;SDS011;53662;50.114;8.626;2023-07-29T10:04:39;2.70;;;1.50;;
49738;SDS011;53662;50.114;8.626;2023-07-29T10:07:05;0.90;;;0.90;;
49738;SDS011;53662;50.114;8.626;2023-07-29T10:09:32;2.75;;;0.90;;
49738;SDS011;53662;50.114;8.626;2023-07-29T10:11:58;1.00;;;1.00;;
49738;SDS011;53662;50.114;8.626;2023-07-29T10:14:24;1.80;;;1.20;;
49738;SDS011;53662;50.114;8.626;2023-07-29T10:16:52;4.68;;;0.98;;
49738;SDS011;53662;50.114;8.626;2023-07-29T10:19:19;1.17;;;1.17;;
49738;SDS011;53662;50.114;8.626;2023-07-29T10:21:45;3.35;;;1.50;;
49738;SDS011;53662;50.114;8.626;2023-07-29T10:24:15;2.25;;;1.10;;
49738;SDS011;53662;50.114;8.626;2023-07-29T10:26:41;1.27;;;1.20;;
49738;SDS011;53662;50.114;8.626;2023-07-29T10:29:09;1.45;;;1.10;;
49738;SDS011;53662;50.114;8.626;2023-07-29T10:31:37;3.30;;;2.20;;
49738;SDS011;53662;50.114;8.626;2023-07-29T10:34:05;3.15;;;1.13;;
49738;SDS011;53662;50.114;8.626;2023-07-29T10:36:31;1.25;;;1.20;;
49738;SDS011;53662;50.114;8.626;2023-07-29T10:38:57;1.00;;;1.00;;
49738;SDS011;53662;50.114;8.626;2023-07-29T10:41:23;1.13;;;1.13;;
49738;SDS011;53662;50.114;8.626;2023-07-29T10:44:35;1.35;;;1.30;;
49738;SDS011;53662;50.114;8.626;2023-07-29T10:46:55;4.97;;;1.35;;
49738;SDS011;53662;50.114;8.626;2023-07-29T10:49:23;3.67;;;1.40;;
49738;SDS011;53662;50.114;8.626;2023-07-29T10:51:49;0.95;;;0.95;;
49738;SDS011;53662;50.114;8.626;2023-07-29T10:54:15;4.97;;;1.02;;
49738;SDS011;53662;50.114;8.626;2023-07-29T10:56:42;2.85;;;1.17;;
49738;SDS011;53662;50.114;8.626;2023-07-29T11:01:38;1.10;;;1.00;;
49738;SDS011;53662;50.114;8.626;2023-07-29T11:09:39;2.00;;;1.30;;
49738;SDS011;53662;50.114;8.626;2023-07-29T11:12:32;1.73;;;1.65;;
49738;SDS011;53662;50.114;8.626;2023-07-29T11:14:52;1.05;;;1.05;;
49738;SDS011;53662;50.114;8.626;2023-07-29T11:17:18;2.22;;;1.20;;
49738;SDS011;53662;50.114;8.626;2023-07-29T11:19:44;1.50;;;1.33;;
49738;SDS011;53662;50.114;8.626;2023-07-29T11:22:10;1.10;;;1.10;;
49738;SDS011;53662;50.114;8.626;2023-07-29T11:24:37;1.35;;;1.27;;
49738;SDS011;53662;50.114;8.626;2023-07-29T11:27:03;4.43;;;1.30;;
49738;SDS011;53662;50.114;8.626;2023-07-29T11:29:29;1.08;;;1.08;;
49738;SDS011;53662;50.114;8.626;2023-07-29T11:31:55;1.30;;;1.20;;
49738;SDS011;53662;50.114;8.626;2023-07-29T11:34:30;1.20;;;1.20;;
49738;SDS011;53662;50.114;8.626;2023-07-29T11:36:56;1.00;;;1.00;;
49738;SDS011;53662;50.114;8.626;2023-07-29T11:39:22;1.20;;;1.10;;
49738;SDS011;53662;50.114;8.626;2023-07-29T11:41:48;1.63;;;1.50;;
49738;SDS011;53662;50.114;8.626;2023-07-29T11:44:17;1.38;;;1.30;;
49738;SDS011;53662;50.114;8.626;2023-07-29T11:46:43;1.77;;;1.75;;
49738;SDS011;53662;50.114;8.626;2023-07-29T11:49:09;2.10;;;1.17;;
49738;SDS011;53662;50.114;8.626;2023-07-29T11:51:36;1.42;;;1.33;;
49738;SDS011;53662;50.114;8.626;2023-07-29T11:54:02;8.35;;;5.55;;
49738;SDS011;53662;50.114;8.626;2023-07-29T11:56:28;1.60;;;1.50;;
49738;SDS011;53662;50.114;8.626;2023-07-29T11:58:55;2.35;;;1.42;;
49738;SDS011;53662;50.114;8.626;2023-07-29T12:01:22;1.48;;;1.35;;
49738;SDS011;53662;50.114;8.626;2023-07-29T12:03:48;1.88;;;1.77;;
49738;SDS011;53662;50.114;8.626;2023-07-29T12:06:15;1.58;;;1.40;;
49738;SDS011;53662;50.114;8.626;2023-07-29T12:08:41;1.58;;;1.48;;
49738;SDS011;53662;50.114;8.626;2023-07-29T12:11:08;1.45;;;1.45;;
49738;SDS011;53662;50.114;8.626;2023-07-29T12:13:35;1.35;;;1.35;;
49738;SDS011;53662;50.114;8.626;2023-07-29T12:16:04;1.50;;;1.40;;
49738;SDS011;53662;50.114;8.626;2023-07-29T12:18:32;1.60;;;1.50;;
49738;SDS011;53662;50.114;8.626;2023-07-29T12:20:57;2.70;;;1.35;;
49738;SDS011;53662;50.114;8.626;2023-07-29T12:23:24;2.05;;;1.40;;
49738;SDS011;53662;50.114;8.626;2023-07-29T12:25:51;2.50;;;1.58;;
49738;SDS011;53662;50.114;8.626;2023-07-29T12:28:17;2.58;;;1.77;;
49738;SDS011;53662;50.114;8.626;2023-07-29T12:30:43;2.60;;;1.42;;
49738;SDS011;53662;50.114;8.626;2023-07-29T12:33:09;1.65;;;1.55;;
49738;SDS011;53662;50.114;8.626;2023-07-29T12:35:35;1.13;;;1.13;;
49738;SDS011;53662;50.114;8.626;2023-07-29T12:38:02;1.70;;;1.60;;
49738;SDS011;53662;50.114;8.626;2023-07-29T12:40:28;3.35;;;1.25;;
49738;SDS011;53662;50.114;8.626;2023-07-29T12:42:54;1.20;;;1.20;;
49738;SDS011;53662;50.114;8.626;2023-07-29T12:45:20;1.30;;;1.30;;
49738;SDS011;53662;50.114;8.626;2023-07-29T12:47:48;1.50;;;1.50;;
49738;SDS011;53662;50.114;8.626;2023-07-29T12:50:14;1.63;;;1.52;;
49738;SDS011;53662;50.114;8.626;2023-07-29T12:52:40;1.58;;;1.48;;
49738;SDS011;53662;50.114;8.626;2023-07-29T12:55:06;1.58;;;1.48;;
49738;SDS011;53662;50.114;8.626;2023-07-29T12:57:38;1.38;;;0.98;;
49738;SDS011;53662;50.114;8.626;2023-07-29T13:00:04;7.75;;;1.50;;
49738;SDS011;53662;50.114;8.626;2023-07-29T13:02:31;3.22;;;1.55;;
49738;SDS011;53662;50.114;8.626;2023-07-29T13:04:57;3.88;;;1.38;;
49738;SDS011;53662;50.114;8.626;2023-07-29T13:07:23;2.03;;;1.33;;
49738;SDS011;53662;50.114;8.626;2023-07-29T13:09:49;1.30;;;1.20;;
49738;SDS011;53662;50.114;8.626;2023-07-29T13:12:14;1.45;;;1.40;;
49738;SDS011;53662;50.114;8.626;2023-07-29T13:14:40;1.20;;;1.20;;
49738;SDS011;53662;50.114;8.626;2023-07-29T13:17:06;1.35;;;1.23;;
49738;SDS011;53662;50.114;8.626;2023-07-29T13:19:32;1.13;;;1.13;;
49738;SDS011;53662;50.114;8.626;2023-07-29T13:21:58;1.65;;;1.60;;
49738;SDS011;53662;50.114;8.626;2023-07-29T13:24:24;2.40;;;1.50;;
49738;SDS011;53662;50.114;8.626;2023-07-29T13:26:50;1.70;;;1.70;;
49738;SDS011;53662;50.114;8.626;2023-07-29T13:29:16;1.55;;;1.40;;
49738;SDS011;53662;50.114;8.626;2023-07-29T13:31:42;3.15;;;1.48;;
49738;SDS011;53662;50.114;8.626;2023-07-29T13:34:08;2.33;;;1.15;;
49738;SDS011;53662;50.114;8.626;2023-07-29T13:36:34;1.30;;;1.20;;
49738;SDS011;53662;50.114;8.626;2023-07-29T13:38:59;5.47;;;1.60;;
49738;SDS011;53662;50.114;8.626;2023-07-29T13:41:25;1.73;;;1.63;;
49738;SDS011;53662;50.114;8.626;2023-07-29T13:43:51;4.88;;;1.30;;
49738;SDS011;53662;50.114;8.626;2023-07-29T13:46:17;6.47;;;1.55;;
49738;SDS011;53662;50.114;8.626;2023-07-29T13:48:46;1.55;;;1.45;;
49738;SDS011;53662;50.114;8.626;2023-07-29T13:51:12;2.67;;;1.60;;
49738;SDS011;53662;50.114;8.626;2023-07-29T13:53:37;1.30;;;1.30;;
49738;SDS011;53662;50.114;8.626;2023-07-29T13:56:04;1.50;;;1.40;;
49738;SDS011;53662;50.114;8.626;2023-07-29T13:58:30;2.13;;;1.52;;
49738;SDS011;53662;50.114;8.626;2023-07-29T14:00:56;1.50;;;1.40;;
49738;SDS011;53662;50.114;8.626;2023-07-29T14:03:21;1.55;;;1.42;;
49738;SDS011;53662;50.114;8.626;2023-07-29T14:05:47;1.70;;;1.60;;
49738;SDS011;53662;50.114;8.626;2023-07-29T14:08:13;1.30;;;1.30;;
49738;SDS011;53662;50.114;8.626;2023-07-29T14:10:39;1.30;;;1.30;;
49738;SDS011;53662;50.114;8.626;2023-07-29T14:13:05;4.55;;;1.50;;
49738;SDS011;53662;50.114;8.626;2023-07-29T14:15:31;1.73;;;1.63;;
49738;SDS011;53662;50.114;8.626;2023-07-29T14:17:57;4.88;;;1.63;;
49738;SDS011;53662;50.114;8.626;2023-07-29T14:20:23;2.35;;;1.38;;
49738;SDS011;53662;50.114;8.626;2023-07-29T14:22:49;1.58;;;1.48;;
49738;SDS011;53662;50.114;8.626;2023-07-29T14:25:15;1.83;;;1.60;;
49738;SDS011;53662;50.114;8.626;2023-07-29T14:27:41;2.75;;;1.50;;
49738;SDS011;53662;50.114;8.626;2023-07-29T14:30:07;1.98;;;1.88;;
49738;SDS011;53662;50.114;8.626;2023-07-29T14:32:33;2.08;;;1.55;;
49738;SDS011;53662;50.114;8.626;2023-07-29T14:34:59;1.45;;;1.42;;
49738;SDS011;53662;50.114;8.626;2023-07-29T14:37:29;7.10;;;1.50;;
49738;SDS011;53662;50.114;8.626;2023-07-29T14:39:55;1.50;;;1.40;;
49738;SDS011;53662;50.114;8.626;2023-07-29T14:42:21;1.88;;;1.40;;
49738;SDS011;53662;50.114;8.626;2023-07-29T14:44:47;1.50;;;1.50;;
49738;SDS011;53662;50.114;8.626;2023-07-29T14:47:13;1.70;;;1.70;;
49738;SDS011;53662;50.114;8.626;2023-07-29T14:49:39;1.48;;;1.48;;
49738;SDS011;53662;50.114;8.626;2023-07-29T14:52:05;1.33;;;1.23;;
49738;SDS011;53662;50.114;8.626;2023-07-29T14:54:31;2.03;;;1.92;;
49738;SDS011;53662;50.114;8.626;2023-07-29T14:56:57;1.45;;;1.45;;
49738;SDS011;53662;50.114;8.626;2023-07-29T14:59:23;1.58;;;1.48;;
49738;SDS011;53662;50.114;8.626;2023-07-29T15:01:49;1.60;;;1.50;;
49738;SDS011;53662;50.114;8.626;2023-07-29T15:04:15;1.50;;;1.38;;
49738;SDS011;53662;50.114;8.626;2023-07-29T15:06:41;1.95;;;1.50;;